sensor_id;sensor_type;location;lat;lon;timestamp;P1;durP1;ratioP1;P2;durP2;ratioP2
50126;SDS011;36024;47.974;16.398;2022-10-26T03:07:43;2.80;;;2.60;;
50126;SDS011;36024;47.974;16.398;2022-10-26T03:10:10;3.33;;;2.50;;
50126;SDS011;36024;47.974;16.398;2022-10-26T03:12:37;2.87;;;2.60;;
50126;SDS011;36024;47.974;16.398;2022-10-26T03:15:04;3.17;;;2.80;;
50126;SDS011;36024;47.974;16.398;2022-10-26T03:17:31;3.00;;;2.70;;
50126;SDS011;36024;47.974;16.398;2022-10-26T03:19:59;3.63;;;2.90;;
50126;SDS011;36024;47.974;16.398;2022-10-26T03:22:26;2.97;;;2.63;;
50126;SDS011;36024;47.974;16.398;2022-10-26T03:24:53;4.00;;;2.70;;
50126;SDS011;36024;47.974;16.398;2022-10-26T03:27:20;3.00;;;2.70;;
50126;SDS011;36024;47.974;16.398;2022-10-26T03:29:47;3.67;;;2.57;;
50126;SDS011;36024;47.974;16.398;2022-10-26T03:32:13;6.07;;;2.70;;
50126;SDS011;36024;47.974;16.398;2022-10-26T03:34:40;3.77;;;2.90;;
50126;SDS011;36024;47.974;16.398;2022-10-26T03:37:06;3.40;;;2.70;;
50126;SDS011;36024;47.974;16.398;2022-10-26T03:39:33;4.30;;;2.87;;
50126;SDS011;36024;47.974;16.398;2022-10-26T03:42:01;3.73;;;2.63;;
50126;SDS011;36024;47.974;16.398;2022-10-26T03:44:27;2.90;;;2.70;;
50126;SDS011;36024;47.974;16.398;2022-10-26T03:46:54;3.80;;;3.00;;
50126;SDS011;36024;47.974;16.398;2022-10-26T03:49:20;3.13;;;2.70;;
50126;SDS011;36024;47.974;16.398;2022-10-26T03:51:47;3.30;;;2.73;;
50126;SDS011;36024;47.974;16.398;2022-10-26T03:54:13;2.63;;;2.43;;
50126;SDS011;36024;47.974;16.398;2022-10-26T03:56:40;3.80;;;2.50;;
50126;SDS011;36024;47.974;16.398;2022-10-26T03:59:06;4.37;;;2.60;;
50126;SDS011;36024;47.974;16.398;2022-10-26T04:01:33;2.80;;;2.50;;
50126;SDS011;36024;47.974;16.398;2022-10-26T04:04:00;2.80;;;2.50;;
50126;SDS011;36024;47.974;16.398;2022-10-26T04:06:26;3.67;;;2.57;;
50126;SDS011;36024;47.974;16.398;2022-10-26T04:08:53;3.53;;;2.63;;
50126;SDS011;36024;47.974;16.398;2022-10-26T04:11:23;3.17;;;2.50;;
50126;SDS011;36024;47.974;16.398;2022-10-26T04:13:49;2.87;;;2.53;;
50126;SDS011;36024;47.974;16.398;2022-10-26T04:16:16;3.83;;;2.60;;
50126;SDS011;36024;47.974;16.398;2022-10-26T04:18:43;2.73;;;2.50;;
50126;SDS011;36024;47.974;16.398;2022-10-26T04:21:09;3.50;;;3.20;;
50126;SDS011;36024;47.974;16.398;2022-10-26T04:23:36;3.97;;;3.60;;
50126;SDS011;36024;47.974;16.398;2022-10-26T04:26:05;4.33;;;3.93;;
50126;SDS011;36024;47.974;16.398;2022-10-26T04:28:32;4.93;;;4.47;;
50126;SDS011;36024;47.974;16.398;2022-10-26T04:30:59;5.43;;;4.93;;
50126;SDS011;36024;47.974;16.398;2022-10-26T04:33:25;4.90;;;4.40;;
50126;SDS011;36024;47.974;16.398;2022-10-26T04:35:57;4.97;;;4.47;;
50126;SDS011;36024;47.974;16.398;2022-10-26T04:38:24;3.70;;;3.40;;
50126;SDS011;36024;47.974;16.398;2022-10-26T04:40:50;3.53;;;3.23;;
50126;SDS011;36024;47.974;16.398;2022-10-26T04:43:17;4.37;;;3.97;;
50126;SDS011;36024;47.974;16.398;2022-10-26T04:45:44;5.13;;;3.87;;
50126;SDS011;36024;47.974;16.398;2022-10-26T04:48:11;4.57;;;3.93;;
50126;SDS011;36024;47.974;16.398;2022-10-26T04:50:38;4.40;;;3.70;;
50126;SDS011;36024;47.974;16.398;2022-10-26T04:53:06;4.57;;;4.17;;
50126;SDS011;36024;47.974;16.398;2022-10-26T04:55:33;7.60;;;3.80;;
50126;SDS011;36024;47.974;16.398;2022-10-26T04:58:00;4.20;;;3.80;;
50126;SDS011;36024;47.974;16.398;2022-10-26T05:00:28;5.10;;;3.53;;
50126;SDS011;36024;47.974;16.398;2022-10-26T05:03:05;4.13;;;3.83;;
50126;SDS011;36024;47.974;16.398;2022-10-26T05:05:33;4.53;;;4.13;;
50126;SDS011;36024;47.974;16.398;2022-10-26T05:08:01;5.13;;;4.33;;
50126;SDS011;36024;47.974;16.398;2022-10-26T05:10:27;4.10;;;3.80;;
50126;SDS011;36024;47.974;16.398;2022-10-26T05:12:55;4.97;;;4.00;;
50126;SDS011;36024;47.974;16.398;2022-10-26T05:15:22;3.93;;;3.53;;
50126;SDS011;36024;47.974;16.398;2022-10-26T05:17:56;4.47;;;3.70;;
50126;SDS011;36024;47.974;16.398;2022-10-26T05:20:24;4.07;;;3.50;;
50126;SDS011;36024;47.974;16.398;2022-10-26T05:22:56;4.10;;;3.70;;
50126;SDS011;36024;47.974;16.398;2022-10-26T05:25:24;3.80;;;3.50;;
50126;SDS011;36024;47.974;16.398;2022-10-26T05:27:51;3.87;;;3.33;;
50126;SDS011;36024;47.974;16.398;2022-10-26T05:30:21;3.97;;;3.67;;
50126;SDS011;36024;47.974;16.398;2022-10-26T05:32:52;4.50;;;3.63;;
50126;SDS011;36024;47.974;16.398;2022-10-26T05:35:19;3.90;;;3.47;;
50126;SDS011;36024;47.974;16.398;2022-10-26T05:37:46;4.47;;;3.60;;
50126;SDS011;36024;47.974;16.398;2022-10-26T05:40:13;5.63;;;3.70;;
50126;SDS011;36024;47.974;16.398;2022-10-26T05:42:40;3.30;;;3.00;;
50126;SDS011;36024;47.974;16.398;2022-10-26T05:45:07;4.00;;;3.00;;
50126;SDS011;36024;47.974;16.398;2022-10-26T05:47:37;6.77;;;3.03;;
50126;SDS011;36024;47.974;16.398;2022-10-26T05:50:04;4.83;;;3.10;;
50126;SDS011;36024;47.974;16.398;2022-10-26T05:52:41;4.03;;;3.20;;
50126;SDS011;36024;47.974;16.398;2022-10-26T05:55:10;3.60;;;3.27;;
50126;SDS011;36024;47.974;16.398;2022-10-26T05:58:13;3.20;;;2.90;;
50126;SDS011;36024;47.974;16.398;2022-10-26T06:05:20;3.27;;;2.83;;
50126;SDS011;36024;47.974;16.398;2022-10-26T06:07:49;5.30;;;3.17;;
50126;SDS011;36024;47.974;16.398;2022-10-26T06:10:17;3.37;;;3.07;;
50126;SDS011;36024;47.974;16.398;2022-10-26T06:12:44;3.60;;;3.30;;
50126;SDS011;36024;47.974;16.398;2022-10-26T06:15:15;4.67;;;3.57;;
50126;SDS011;36024;47.974;16.398;2022-10-26T06:25:45;4.20;;;3.80;;
50126;SDS011;36024;47.974;16.398;2022-10-26T06:30:55;4.07;;;3.40;;
50126;SDS011;36024;47.974;16.398;2022-10-26T06:33:22;3.53;;;3.10;;
50126;SDS011;36024;47.974;16.398;2022-10-26T06:36:03;4.17;;;3.40;;
50126;SDS011;36024;47.974;16.398;2022-10-26T06:38:31;6.03;;;3.90;;
50126;SDS011;36024;47.974;16.398;2022-10-26T06:40:59;7.10;;;4.10;;
50126;SDS011;36024;47.974;16.398;2022-10-26T06:43:28;6.47;;;3.57;;
50126;SDS011;36024;47.974;16.398;2022-10-26T06:46:04;5.13;;;3.17;;
50126;SDS011;36024;47.974;16.398;2022-10-26T06:51:23;4.07;;;3.00;;
50126;SDS011;36024;47.974;16.398;2022-10-26T06:56:36;6.27;;;3.10;;
50126;SDS011;36024;47.974;16.398;2022-10-26T06:59:05;5.33;;;3.80;;
50126;SDS011;36024;47.974;16.398;2022-10-26T07:01:34;8.17;;;4.50;;
50126;SDS011;36024;47.974;16.398;2022-10-26T07:04:01;6.77;;;4.43;;
50126;SDS011;36024;47.974;16.398;2022-10-26T07:06:28;12.23;;;5.77;;
50126;SDS011;36024;47.974;16.398;2022-10-26T07:08:57;6.70;;;4.80;;
50126;SDS011;36024;47.974;16.398;2022-10-26T07:11:24;10.60;;;5.70;;
50126;SDS011;36024;47.974;16.398;2022-10-26T07:13:50;7.70;;;5.37;;
50126;SDS011;36024;47.974;16.398;2022-10-26T07:16:17;9.77;;;5.50;;
50126;SDS011;36024;47.974;16.398;2022-10-26T07:18:44;8.40;;;5.40;;
50126;SDS011;36024;47.974;16.398;2022-10-26T07:21:10;11.30;;;6.40;;
50126;SDS011;36024;47.974;16.398;2022-10-26T07:23:37;9.93;;;5.60;;
50126;SDS011;36024;47.974;16.398;2022-10-26T07:26:04;8.30;;;5.63;;
50126;SDS011;36024;47.974;16.398;2022-10-26T07:28:30;10.63;;;6.97;;
50126;SDS011;36024;47.974;16.398;2022-10-26T07:30:57;11.97;;;7.87;;
50126;SDS011;36024;47.974;16.398;2022-10-26T07:33:24;10.53;;;7.43;;
50126;SDS011;36024;47.974;16.398;2022-10-26T07:35:50;10.23;;;7.67;;
50126;SDS011;36024;47.974;16.398;2022-10-26T07:38:18;9.40;;;7.50;;
50126;SDS011;36024;47.974;16.398;2022-10-26T07:40:44;10.60;;;8.23;;
50126;SDS011;36024;47.974;16.398;2022-10-26T07:43:11;10.37;;;7.77;;
50126;SDS011;36024;47.974;16.398;2022-10-26T07:45:38;10.03;;;7.93;;
50126;SDS011;36024;47.974;16.398;2022-10-26T07:48:05;10.50;;;8.20;;
50126;SDS011;36024;47.974;16.398;2022-10-26T07:50:32;10.93;;;8.40;;
50126;SDS011;36024;47.974;16.398;2022-10-26T07:52:59;10.97;;;8.47;;
50126;SDS011;36024;47.974;16.398;2022-10-26T07:55:25;9.80;;;8.23;;
50126;SDS011;36024;47.974;16.398;2022-10-26T07:57:53;9.33;;;8.33;;
50126;SDS011;36024;47.974;16.398;2022-10-26T08:00:21;9.80;;;8.43;;
50126;SDS011;36024;47.974;16.398;2022-10-26T08:02:47;9.87;;;8.00;;
50126;SDS011;36024;47.974;16.398;2022-10-26T08:05:14;8.57;;;7.50;;
50126;SDS011;36024;47.974;16.398;2022-10-26T08:07:41;9.57;;;7.63;;
50126;SDS011;36024;47.974;16.398;2022-10-26T08:10:09;8.37;;;7.23;;
50126;SDS011;36024;47.974;16.398;2022-10-26T08:12:36;8.80;;;7.60;;
50126;SDS011;36024;47.974;16.398;2022-10-26T08:15:03;8.67;;;7.77;;
50126;SDS011;36024;47.974;16.398;2022-10-26T08:17:30;10.63;;;8.27;;
50126;SDS011;36024;47.974;16.398;2022-10-26T08:19:57;10.47;;;8.60;;
50126;SDS011;36024;47.974;16.398;2022-10-26T08:22:24;10.37;;;7.83;;
50126;SDS011;36024;47.974;16.398;2022-10-26T08:24:50;10.33;;;8.13;;
50126;SDS011;36024;47.974;16.398;2022-10-26T08:27:17;11.57;;;8.30;;
50126;SDS011;36024;47.974;16.398;2022-10-26T08:29:44;8.83;;;7.70;;
50126;SDS011;36024;47.974;16.398;2022-10-26T08:32:10;9.53;;;8.03;;
50126;SDS011;36024;47.974;16.398;2022-10-26T08:34:37;10.90;;;7.83;;
50126;SDS011;36024;47.974;16.398;2022-10-26T08:37:03;10.37;;;7.60;;
50126;SDS011;36024;47.974;16.398;2022-10-26T08:39:30;8.43;;;7.37;;
50126;SDS011;36024;47.974;16.398;2022-10-26T08:42:00;8.10;;;6.97;;
50126;SDS011;36024;47.974;16.398;2022-10-26T08:44:36;9.83;;;7.33;;
50126;SDS011;36024;47.974;16.398;2022-10-26T08:47:08;7.57;;;6.17;;
50126;SDS011;36024;47.974;16.398;2022-10-26T08:49:50;9.83;;;6.20;;
50126;SDS011;36024;47.974;16.398;2022-10-26T08:52:21;9.03;;;7.70;;
50126;SDS011;36024;47.974;16.398;2022-10-26T08:54:53;8.10;;;7.30;;
50126;SDS011;36024;47.974;16.398;2022-10-26T08:57:24;10.00;;;7.50;;
50126;SDS011;36024;47.974;16.398;2022-10-26T08:59:57;10.30;;;8.23;;
50126;SDS011;36024;47.974;16.398;2022-10-26T09:02:25;9.10;;;7.00;;
50126;SDS011;36024;47.974;16.398;2022-10-26T09:04:52;7.67;;;6.87;;
50126;SDS011;36024;47.974;16.398;2022-10-26T09:08:03;6.70;;;6.00;;
50126;SDS011;36024;47.974;16.398;2022-10-26T09:13:20;7.70;;;5.90;;
50126;SDS011;36024;47.974;16.398;2022-10-26T09:16:24;7.67;;;6.13;;
50126;SDS011;36024;47.974;16.398;2022-10-26T09:19:22;6.93;;;5.87;;
50126;SDS011;36024;47.974;16.398;2022-10-26T09:21:58;8.73;;;6.23;;
50126;SDS011;36024;47.974;16.398;2022-10-26T09:24:33;7.67;;;6.13;;
50126;SDS011;36024;47.974;16.398;2022-10-26T09:29:41;6.83;;;5.47;;
50126;SDS011;36024;47.974;16.398;2022-10-26T09:32:22;6.97;;;5.30;;
50126;SDS011;36024;47.974;16.398;2022-10-26T09:37:51;9.00;;;6.27;;
50126;SDS011;36024;47.974;16.398;2022-10-26T09:43:00;8.73;;;6.90;;
50126;SDS011;36024;47.974;16.398;2022-10-26T09:45:35;10.03;;;7.03;;
50126;SDS011;36024;47.974;16.398;2022-10-26T09:48:11;9.67;;;7.50;;
50126;SDS011;36024;47.974;16.398;2022-10-26T09:50:42;9.70;;;7.77;;
50126;SDS011;36024;47.974;16.398;2022-10-26T09:53:12;10.33;;;8.03;;
50126;SDS011;36024;47.974;16.398;2022-10-26T09:55:40;12.30;;;8.20;;
50126;SDS011;36024;47.974;16.398;2022-10-26T09:58:12;12.97;;;8.23;;
50126;SDS011;36024;47.974;16.398;2022-10-26T10:00:41;11.93;;;8.53;;
50126;SDS011;36024;47.974;16.398;2022-10-26T10:03:18;13.17;;;8.73;;
50126;SDS011;36024;47.974;16.398;2022-10-26T10:08:42;14.67;;;10.03;;
50126;SDS011;36024;47.974;16.398;2022-10-26T10:11:11;11.97;;;9.03;;
50126;SDS011;36024;47.974;16.398;2022-10-26T10:13:39;16.87;;;10.87;;
50126;SDS011;36024;47.974;16.398;2022-10-26T10:18:53;14.80;;;10.90;;
50126;SDS011;36024;47.974;16.398;2022-10-26T10:21:21;12.53;;;9.10;;
50126;SDS011;36024;47.974;16.398;2022-10-26T10:24:02;13.43;;;9.47;;
50126;SDS011;36024;47.974;16.398;2022-10-26T10:26:57;13.17;;;10.40;;
50126;SDS011;36024;47.974;16.398;2022-10-26T10:29:43;13.37;;;9.70;;
50126;SDS011;36024;47.974;16.398;2022-10-26T10:34:41;13.10;;;9.70;;
50126;SDS011;36024;47.974;16.398;2022-10-26T10:37:21;12.60;;;9.87;;
50126;SDS011;36024;47.974;16.398;2022-10-26T10:39:48;14.47;;;12.23;;
50126;SDS011;36024;47.974;16.398;2022-10-26T10:42:26;15.33;;;12.30;;
50126;SDS011;36024;47.974;16.398;2022-10-26T10:44:55;15.03;;;10.97;;
50126;SDS011;36024;47.974;16.398;2022-10-26T10:47:30;14.33;;;9.97;;
50126;SDS011;36024;47.974;16.398;2022-10-26T10:50:03;13.77;;;10.30;;
50126;SDS011;36024;47.974;16.398;2022-10-26T10:52:34;15.50;;;10.50;;
50126;SDS011;36024;47.974;16.398;2022-10-26T11:00:29;15.60;;;11.17;;
50126;SDS011;36024;47.974;16.398;2022-10-26T11:06:21;15.00;;;11.27;;
50126;SDS011;36024;47.974;16.398;2022-10-26T11:09:00;15.90;;;11.43;;
50126;SDS011;36024;47.974;16.398;2022-10-26T11:11:42;15.23;;;11.93;;
50126;SDS011;36024;47.974;16.398;2022-10-26T11:14:19;16.60;;;12.43;;
50126;SDS011;36024;47.974;16.398;2022-10-26T11:16:51;15.47;;;12.13;;
50126;SDS011;36024;47.974;16.398;2022-10-26T11:20:00;16.33;;;12.83;;
50126;SDS011;36024;47.974;16.398;2022-10-26T11:22:32;16.87;;;12.77;;
50126;SDS011;36024;47.974;16.398;2022-10-26T11:25:02;18.10;;;12.80;;
50126;SDS011;36024;47.974;16.398;2022-10-26T11:27:38;18.17;;;14.47;;
50126;SDS011;36024;47.974;16.398;2022-10-26T11:30:12;14.80;;;13.03;;
50126;SDS011;36024;47.974;16.398;2022-10-26T11:32:44;17.67;;;13.80;;
50126;SDS011;36024;47.974;16.398;2022-10-26T11:38:09;18.00;;;14.73;;
50126;SDS011;36024;47.974;16.398;2022-10-26T11:43:37;14.90;;;13.40;;
50126;SDS011;36024;47.974;16.398;2022-10-26T11:46:10;16.70;;;14.03;;
50126;SDS011;36024;47.974;16.398;2022-10-26T11:51:40;15.70;;;13.40;;
50126;SDS011;36024;47.974;16.398;2022-10-26T11:54:11;15.10;;;13.40;;
50126;SDS011;36024;47.974;16.398;2022-10-26T11:56:59;14.20;;;12.77;;
50126;SDS011;36024;47.974;16.398;2022-10-26T11:59:27;14.10;;;12.70;;
50126;SDS011;36024;47.974;16.398;2022-10-26T12:02:00;16.30;;;13.27;;
50126;SDS011;36024;47.974;16.398;2022-10-26T12:04:52;14.60;;;13.07;;
50126;SDS011;36024;47.974;16.398;2022-10-26T12:07:25;15.37;;;13.57;;
50126;SDS011;36024;47.974;16.398;2022-10-26T12:09:54;15.27;;;13.20;;
50126;SDS011;36024;47.974;16.398;2022-10-26T12:12:31;14.40;;;12.90;;
50126;SDS011;36024;47.974;16.398;2022-10-26T12:17:41;15.20;;;13.67;;
50126;SDS011;36024;47.974;16.398;2022-10-26T12:22:38;16.30;;;12.97;;
50126;SDS011;36024;47.974;16.398;2022-10-26T12:37:54;16.03;;;12.50;;
50126;SDS011;36024;47.974;16.398;2022-10-26T12:45:41;13.70;;;11.50;;
50126;SDS011;36024;47.974;16.398;2022-10-26T12:51:17;13.73;;;11.67;;
50126;SDS011;36024;47.974;16.398;2022-10-26T12:54:18;13.50;;;12.03;;
50126;SDS011;36024;47.974;16.398;2022-10-26T12:59:44;13.53;;;11.30;;
50126;SDS011;36024;47.974;16.398;2022-10-26T13:08:03;12.57;;;10.33;;
50126;SDS011;36024;47.974;16.398;2022-10-26T13:10:32;12.47;;;10.50;;
50126;SDS011;36024;47.974;16.398;2022-10-26T13:12:59;11.03;;;9.80;;
50126;SDS011;36024;47.974;16.398;2022-10-26T13:15:32;13.27;;;9.90;;
50126;SDS011;36024;47.974;16.398;2022-10-26T13:18:13;14.73;;;10.33;;
50126;SDS011;36024;47.974;16.398;2022-10-26T13:20:51;14.00;;;10.07;;
50126;SDS011;36024;47.974;16.398;2022-10-26T13:23:23;12.67;;;10.37;;
50126;SDS011;36024;47.974;16.398;2022-10-26T13:31:05;16.57;;;10.13;;
50126;SDS011;36024;47.974;16.398;2022-10-26T13:33:36;10.70;;;9.57;;
50126;SDS011;36024;47.974;16.398;2022-10-26T13:36:17;10.13;;;8.87;;
50126;SDS011;36024;47.974;16.398;2022-10-26T13:39:12;10.43;;;9.37;;
50126;SDS011;36024;47.974;16.398;2022-10-26T13:41:43;9.83;;;8.83;;
50126;SDS011;36024;47.974;16.398;2022-10-26T13:44:13;9.43;;;8.43;;
50126;SDS011;36024;47.974;16.398;2022-10-26T13:46:44;9.27;;;8.07;;
50126;SDS011;36024;47.974;16.398;2022-10-26T13:49:19;9.97;;;7.97;;
50126;SDS011;36024;47.974;16.398;2022-10-26T13:51:49;10.17;;;8.50;;
50126;SDS011;36024;47.974;16.398;2022-10-26T13:54:28;9.50;;;8.17;;
50126;SDS011;36024;47.974;16.398;2022-10-26T13:57:16;10.83;;;8.60;;
50126;SDS011;36024;47.974;16.398;2022-10-26T13:59:45;9.63;;;8.60;;
50126;SDS011;36024;47.974;16.398;2022-10-26T14:04:45;10.40;;;8.90;;
50126;SDS011;36024;47.974;16.398;2022-10-26T14:07:23;11.43;;;8.50;;
50126;SDS011;36024;47.974;16.398;2022-10-26T14:09:52;10.37;;;9.03;;
50126;SDS011;36024;47.974;16.398;2022-10-26T14:12:21;12.00;;;9.70;;
50126;SDS011;36024;47.974;16.398;2022-10-26T14:14:49;10.10;;;9.00;;
50126;SDS011;36024;47.974;16.398;2022-10-26T14:17:17;10.20;;;9.00;;
50126;SDS011;36024;47.974;16.398;2022-10-26T14:19:45;10.60;;;9.43;;
50126;SDS011;36024;47.974;16.398;2022-10-26T14:22:22;10.73;;;9.73;;
50126;SDS011;36024;47.974;16.398;2022-10-26T14:24:54;10.57;;;9.53;;
50126;SDS011;36024;47.974;16.398;2022-10-26T14:27:26;10.43;;;9.43;;
50126;SDS011;36024;47.974;16.398;2022-10-26T14:29:57;10.50;;;9.50;;
50126;SDS011;36024;47.974;16.398;2022-10-26T14:32:44;10.17;;;9.17;;
50126;SDS011;36024;47.974;16.398;2022-10-26T14:35:14;10.83;;;9.40;;
50126;SDS011;36024;47.974;16.398;2022-10-26T14:37:44;10.57;;;9.57;;
50126;SDS011;36024;47.974;16.398;2022-10-26T14:40:16;11.30;;;10.10;;
50126;SDS011;36024;47.974;16.398;2022-10-26T14:42:46;11.30;;;10.17;;
50126;SDS011;36024;47.974;16.398;2022-10-26T14:45:24;10.40;;;9.40;;
50126;SDS011;36024;47.974;16.398;2022-10-26T14:48:30;11.27;;;10.17;;
50126;SDS011;36024;47.974;16.398;2022-10-26T14:51:14;10.77;;;9.67;;
50126;SDS011;36024;47.974;16.398;2022-10-26T14:53:46;11.23;;;10.13;;
50126;SDS011;36024;47.974;16.398;2022-10-26T14:56:22;11.97;;;10.37;;
50126;SDS011;36024;47.974;16.398;2022-10-26T14:58:49;11.23;;;10.13;;
50126;SDS011;36024;47.974;16.398;2022-10-26T15:03:52;10.87;;;9.80;;
50126;SDS011;36024;47.974;16.398;2022-10-26T15:06:28;10.97;;;9.90;;
50126;SDS011;36024;47.974;16.398;2022-10-26T15:09:04;11.57;;;10.33;;
50126;SDS011;36024;47.974;16.398;2022-10-26T15:11:33;12.03;;;10.93;;
50126;SDS011;36024;47.974;16.398;2022-10-26T15:14:00;12.23;;;11.00;;
50126;SDS011;36024;47.974;16.398;2022-10-26T15:16:28;12.13;;;10.83;;
50126;SDS011;36024;47.974;16.398;2022-10-26T15:21:28;11.93;;;10.77;;
50126;SDS011;36024;47.974;16.398;2022-10-26T15:23:57;12.00;;;10.80;;
50126;SDS011;36024;47.974;16.398;2022-10-26T15:26:24;11.87;;;10.67;;
50126;SDS011;36024;47.974;16.398;2022-10-26T15:28:51;12.80;;;11.50;;
50126;SDS011;36024;47.974;16.398;2022-10-26T15:36:18;12.67;;;11.40;;
50126;SDS011;36024;47.974;16.398;2022-10-26T15:38:46;15.03;;;11.40;;
50126;SDS011;36024;47.974;16.398;2022-10-26T15:41:18;13.47;;;12.17;;
50126;SDS011;36024;47.974;16.398;2022-10-26T15:43:47;13.20;;;11.90;;
50126;SDS011;36024;47.974;16.398;2022-10-26T15:46:15;13.50;;;12.13;;
50126;SDS011;36024;47.974;16.398;2022-10-26T15:48:42;13.40;;;12.10;;
50126;SDS011;36024;47.974;16.398;2022-10-26T15:51:15;12.17;;;11.07;;
50126;SDS011;36024;47.974;16.398;2022-10-26T15:53:42;13.27;;;11.93;;
50126;SDS011;36024;47.974;16.398;2022-10-26T15:56:15;13.00;;;11.70;;
50126;SDS011;36024;47.974;16.398;2022-10-26T15:58:46;13.10;;;11.70;;
50126;SDS011;36024;47.974;16.398;2022-10-26T16:01:16;12.20;;;11.00;;
50126;SDS011;36024;47.974;16.398;2022-10-26T16:03:50;12.47;;;11.27;;
50126;SDS011;36024;47.974;16.398;2022-10-26T16:06:21;14.93;;;13.33;;
50126;SDS011;36024;47.974;16.398;2022-10-26T16:08:52;13.33;;;11.80;;
50126;SDS011;36024;47.974;16.398;2022-10-26T16:11:22;13.23;;;11.93;;
50126;SDS011;36024;47.974;16.398;2022-10-26T16:13:49;15.43;;;13.23;;
50126;SDS011;36024;47.974;16.398;2022-10-26T16:16:18;17.37;;;14.70;;
50126;SDS011;36024;47.974;16.398;2022-10-26T16:18:45;15.30;;;13.90;;
50126;SDS011;36024;47.974;16.398;2022-10-26T16:21:15;15.00;;;13.40;;
50126;SDS011;36024;47.974;16.398;2022-10-26T16:23:47;16.03;;;14.33;;
50126;SDS011;36024;47.974;16.398;2022-10-26T16:26:15;20.40;;;18.30;;
50126;SDS011;36024;47.974;16.398;2022-10-26T16:28:42;17.43;;;15.57;;
50126;SDS011;36024;47.974;16.398;2022-10-26T16:31:10;15.53;;;13.93;;
50126;SDS011;36024;47.974;16.398;2022-10-26T16:33:37;15.53;;;13.93;;
50126;SDS011;36024;47.974;16.398;2022-10-26T16:36:08;17.20;;;14.43;;
50126;SDS011;36024;47.974;16.398;2022-10-26T16:38:35;18.73;;;16.77;;
50126;SDS011;36024;47.974;16.398;2022-10-26T16:41:03;26.00;;;23.40;;
50126;SDS011;36024;47.974;16.398;2022-10-26T16:43:32;45.10;;;40.10;;
50126;SDS011;36024;47.974;16.398;2022-10-26T16:46:14;28.07;;;25.13;;
50126;SDS011;36024;47.974;16.398;2022-10-26T16:48:46;22.47;;;20.07;;
50126;SDS011;36024;47.974;16.398;2022-10-26T16:51:15;20.43;;;18.47;;
50126;SDS011;36024;47.974;16.398;2022-10-26T16:53:46;17.10;;;15.30;;
50126;SDS011;36024;47.974;16.398;2022-10-26T16:56:15;17.17;;;15.43;;
50126;SDS011;36024;47.974;16.398;2022-10-26T16:58:43;15.97;;;14.40;;
50126;SDS011;36024;47.974;16.398;2022-10-26T17:01:11;16.50;;;14.90;;
50126;SDS011;36024;47.974;16.398;2022-10-26T17:03:44;16.37;;;14.77;;
50126;SDS011;36024;47.974;16.398;2022-10-26T17:06:11;16.57;;;15.07;;
50126;SDS011;36024;47.974;16.398;2022-10-26T17:08:38;17.50;;;15.80;;
50126;SDS011;36024;47.974;16.398;2022-10-26T17:11:06;17.43;;;15.73;;
50126;SDS011;36024;47.974;16.398;2022-10-26T17:13:37;16.80;;;15.10;;
50126;SDS011;36024;47.974;16.398;2022-10-26T17:16:05;17.53;;;15.83;;
50126;SDS011;36024;47.974;16.398;2022-10-26T17:18:37;17.67;;;16.03;;
50126;SDS011;36024;47.974;16.398;2022-10-26T17:21:07;18.60;;;16.70;;
50126;SDS011;36024;47.974;16.398;2022-10-26T17:23:34;18.23;;;16.43;;
50126;SDS011;36024;47.974;16.398;2022-10-26T17:26:01;18.13;;;16.23;;
50126;SDS011;36024;47.974;16.398;2022-10-26T17:28:29;18.27;;;16.47;;
50126;SDS011;36024;47.974;16.398;2022-10-26T17:31:05;18.40;;;16.50;;
50126;SDS011;36024;47.974;16.398;2022-10-26T17:33:34;17.33;;;15.63;;
50126;SDS011;36024;47.974;16.398;2022-10-26T17:36:02;17.80;;;16.10;;
50126;SDS011;36024;47.974;16.398;2022-10-26T17:38:30;19.23;;;17.30;;
50126;SDS011;36024;47.974;16.398;2022-10-26T17:41:02;17.53;;;15.83;;
50126;SDS011;36024;47.974;16.398;2022-10-26T17:43:34;17.00;;;15.40;;
50126;SDS011;36024;47.974;16.398;2022-10-26T17:46:03;17.47;;;15.77;;
50126;SDS011;36024;47.974;16.398;2022-10-26T17:48:31;17.33;;;15.73;;
50126;SDS011;36024;47.974;16.398;2022-10-26T17:50:58;17.13;;;15.53;;
50126;SDS011;36024;47.974;16.398;2022-10-26T17:53:25;18.33;;;16.50;;
50126;SDS011;36024;47.974;16.398;2022-10-26T17:55:59;20.70;;;18.60;;
50126;SDS011;36024;47.974;16.398;2022-10-26T17:58:31;32.63;;;28.17;;
50126;SDS011;36024;47.974;16.398;2022-10-26T18:00:59;33.73;;;27.77;;
50126;SDS011;36024;47.974;16.398;2022-10-26T18:03:27;45.40;;;36.07;;
50126;SDS011;36024;47.974;16.398;2022-10-26T18:05:54;27.50;;;24.50;;
50126;SDS011;36024;47.974;16.398;2022-10-26T18:08:20;27.53;;;24.63;;
50126;SDS011;36024;47.974;16.398;2022-10-26T18:13:14;33.00;;;28.20;;
50126;SDS011;36024;47.974;16.398;2022-10-26T18:15:40;30.17;;;26.97;;
50126;SDS011;36024;47.974;16.398;2022-10-26T18:18:07;28.20;;;25.27;;
50126;SDS011;36024;47.974;16.398;2022-10-26T18:20:34;26.87;;;24.07;;
50126;SDS011;36024;47.974;16.398;2022-10-26T18:23:00;24.70;;;22.40;;
50126;SDS011;36024;47.974;16.398;2022-10-26T18:25:27;22.53;;;20.33;;
50126;SDS011;36024;47.974;16.398;2022-10-26T18:27:54;22.70;;;20.50;;
50126;SDS011;36024;47.974;16.398;2022-10-26T18:30:21;22.17;;;19.93;;
50126;SDS011;36024;47.974;16.398;2022-10-26T18:32:48;23.43;;;21.13;;
50126;SDS011;36024;47.974;16.398;2022-10-26T18:35:16;22.67;;;20.27;;
50126;SDS011;36024;47.974;16.398;2022-10-26T18:37:43;22.43;;;20.23;;
50126;SDS011;36024;47.974;16.398;2022-10-26T18:40:10;22.23;;;19.93;;
50126;SDS011;36024;47.974;16.398;2022-10-26T18:42:37;21.00;;;18.77;;
50126;SDS011;36024;47.974;16.398;2022-10-26T18:45:04;19.80;;;17.80;;
50126;SDS011;36024;47.974;16.398;2022-10-26T18:47:31;19.53;;;17.63;;
50126;SDS011;36024;47.974;16.398;2022-10-26T18:49:58;19.43;;;17.43;;
50126;SDS011;36024;47.974;16.398;2022-10-26T18:52:24;17.53;;;15.83;;
50126;SDS011;36024;47.974;16.398;2022-10-26T18:54:55;17.10;;;15.47;;
50126;SDS011;36024;47.974;16.398;2022-10-26T18:57:21;16.40;;;14.80;;
50126;SDS011;36024;47.974;16.398;2022-10-26T18:59:52;15.80;;;14.33;;
50126;SDS011;36024;47.974;16.398;2022-10-26T19:02:20;16.00;;;14.50;;
50126;SDS011;36024;47.974;16.398;2022-10-26T19:04:48;15.57;;;14.00;;
50126;SDS011;36024;47.974;16.398;2022-10-26T19:07:18;15.93;;;14.43;;
50126;SDS011;36024;47.974;16.398;2022-10-26T19:09:45;15.67;;;14.17;;
50126;SDS011;36024;47.974;16.398;2022-10-26T19:12:11;15.43;;;13.90;;
50126;SDS011;36024;47.974;16.398;2022-10-26T19:14:38;15.27;;;13.77;;
50126;SDS011;36024;47.974;16.398;2022-10-26T19:17:05;15.60;;;14.00;;
50126;SDS011;36024;47.974;16.398;2022-10-26T19:19:31;15.17;;;13.67;;
50126;SDS011;36024;47.974;16.398;2022-10-26T19:21:58;15.23;;;13.80;;
50126;SDS011;36024;47.974;16.398;2022-10-26T19:24:26;15.27;;;13.87;;
50126;SDS011;36024;47.974;16.398;2022-10-26T19:26:52;14.87;;;13.57;;
50126;SDS011;36024;47.974;16.398;2022-10-26T19:29:19;14.13;;;12.80;;
50126;SDS011;36024;47.974;16.398;2022-10-26T19:31:46;14.03;;;12.63;;
50126;SDS011;36024;47.974;16.398;2022-10-26T19:34:16;14.50;;;13.10;;
50126;SDS011;36024;47.974;16.398;2022-10-26T19:36:43;13.63;;;12.33;;
50126;SDS011;36024;47.974;16.398;2022-10-26T19:39:12;14.70;;;13.27;;